Time;durP1;ratioP1;P1;durP2;ratioP2;P2;SDS_P1;SDS_P2;PMS_P1;PMS_P2;Temp;Humidity;BMP_temperature;BMP_pressure;BME280_temperature;BME280_humidity;BME280_pressure;Samples;Min_cycle;Max_cycle;Signal;HPM_P1;HPM_P2
2022/05/30 00:03:01;;;;;;;1.80;0.90;;;;;;;16.96;46.60;95953.03;10491041;28;20036;-23
2022/05/30 00:08:02;;;;;;;2.13;0.90;;;;;;;17.04;46.86;95971.53;10489816;28;20028;-23
2022/05/30 00:13:02;;;;;;;2.63;1.20;;;;;;;17.05;46.50;95953.81;10459226;28;20299;-24
2022/05/30 00:18:03;;;;;;;3.40;1.10;;;;;;;17.09;46.41;95959.69;10455850;28;20032;-24
2022/05/30 00:23:04;;;;;;;3.78;1.30;;;;;;;17.10;46.56;95958.84;10492735;28;20056;-24
2022/05/30 00:28:04;;;;;;;2.55;1.00;;;;;;;17.12;46.36;95955.47;10467514;28;20459;-23
2022/05/30 00:33:05;;;;;;;1.48;0.70;;;;;;;17.07;46.46;95956.34;10455817;28;20037;-22
2022/05/30 00:38:06;;;;;;;2.60;1.35;;;;;;;16.98;46.23;95942.06;10457859;28;20039;-24
2022/05/30 00:43:35;;;;;;;2.10;0.80;;;;;;;17.00;46.42;95960.59;10456746;28;20021;-23
2022/05/30 00:48:40;;;;;;;5.55;1.00;;;;;;;17.02;46.46;95960.59;10456957;28;20116;-23
2022/05/30 00:53:44;;;;;;;2.50;1.75;;;;;;;16.98;46.46;95961.47;10454915;28;20028;-24
2022/05/30 00:58:48;;;;;;;4.40;2.17;;;;;;;16.96;46.20;95953.03;10459478;28;20108;-23
2022/05/30 01:09:17;;;;;;;4.63;2.22;;;;;;;16.90;46.48;95948.03;10468432;28;20028;-22
2022/05/30 01:14:20;;;;;;;;;;;;;;;16.93;46.45;95948.84;10472095;28;20033;-24
2022/05/30 01:19:37;;;;;;;5.90;3.15;;;;;;;16.96;46.38;95940.38;10472067;28;20002;-23
2022/05/30 01:24:48;;;;;;;8.60;3.83;;;;;;;16.98;46.04;95926.88;10491255;28;20453;-24
2022/05/30 01:30:12;;;;;;;7.25;2.85;;;;;;;16.98;45.86;95931.94;10455022;28;20116;-23
2022/05/30 01:35:25;;;;;;;7.78;3.35;;;;;;;16.99;45.74;95941.22;10451812;28;20032;-23
2022/05/30 01:40:27;;;;;;;5.40;2.17;;;;;;;16.95;45.72;95939.56;10453206;28;20064;-22
2022/05/30 01:45:28;;;;;;;8.48;3.10;;;;;;;16.91;46.03;95935.34;10453177;28;20123;-22
2022/05/30 01:50:30;;;;;;;7.00;2.65;;;;;;;16.84;46.09;95921.06;10452761;28;20412;-25
2022/05/30 01:55:39;;;;;;;5.60;1.90;;;;;;;16.88;45.65;95925.28;10452912;28;20128;-23
2022/05/30 02:00:44;;;;;;;5.05;2.03;;;;;;;16.89;45.34;95924.44;10473441;28;20032;-22
2022/05/30 02:05:44;;;;;;;3.30;1.73;;;;;;;16.87;45.21;95923.59;10492798;28;20032;-23
2022/05/30 02:10:44;;;;;;;5.73;2.03;;;;;;;16.87;45.27;95922.75;10482935;28;20305;-23
2022/05/30 02:21:05;;;;;;;2.90;1.65;;;;;;;16.87;45.44;95913.50;10483594;28;20040;-24
2022/05/30 02:26:05;;;;;;;3.30;1.50;;;;;;;16.93;45.23;95908.41;10477806;28;20044;-23
2022/05/30 02:31:06;;;;;;;2.28;1.10;;;;;;;16.90;44.94;95907.59;10468652;28;20308;-23
2022/05/30 02:41:30;;;;;;;2.80;1.25;;;;;;;16.82;45.25;95894.16;10484595;28;20055;-23
2022/05/30 02:46:36;;;;;;;2.10;1.00;;;;;;;16.79;45.21;95894.16;10492101;28;20407;-23
2022/05/30 02:51:36;;;;;;;1.37;1.07;;;;;;;16.82;45.10;95894.16;10457310;28;20033;-23
2022/05/30 02:56:39;;;;;;;1.77;1.00;;;;;;;16.79;44.88;95894.16;10450403;28;20032;-24
2022/05/30 03:01:39;;;;;;;1.65;0.80;;;;;;;16.77;44.94;95900.91;10477726;28;20032;-22
2022/05/30 03:06:40;;;;;;;2.70;0.80;;;;;;;16.75;44.39;95898.38;10456746;28;20024;-22
2022/05/30 03:11:41;;;;;;;1.35;0.77;;;;;;;16.76;44.74;95904.28;10451419;28;20106;-24
2022/05/30 03:16:41;;;;;;;2.22;0.98;;;;;;;16.75;44.57;95912.72;10450252;28;20037;-22
2022/05/30 03:21:43;;;;;;;1.48;0.60;;;;;;;16.74;44.63;95906.81;10462952;28;20119;-22
2022/05/30 03:26:44;;;;;;;1.35;0.75;;;;;;;16.78;44.47;95918.59;10449128;28;20129;-22
2022/05/30 03:31:46;;;;;;;2.58;0.93;;;;;;;16.87;44.33;95920.22;10449764;28;20118;-23
2022/05/30 03:36:47;;;;;;;0.90;0.65;;;;;;;16.80;43.95;95921.09;10450624;28;20057;-23
2022/05/30 03:42:06;;;;;;;1.88;0.80;;;;;;;16.73;44.36;95928.75;10450840;28;20041;-25
2022/05/30 03:47:25;;;;;;;1.10;0.85;;;;;;;16.76;44.01;95939.69;10485034;28;20128;-22
2022/05/30 03:52:28;;;;;;;1.98;0.95;;;;;;;16.72;44.01;95940.56;10488765;28;20032;-21
2022/05/30 03:57:30;;;;;;;2.45;1.00;;;;;;;16.71;44.59;95940.56;10462478;28;20036;-21
2022/05/30 04:02:30;;;;;;;1.38;0.80;;;;;;;16.69;44.29;95938.03;10482054;28;20513;-22
2022/05/30 04:07:31;;;;;;;2.30;0.80;;;;;;;16.71;44.03;95948.16;10457312;28;20044;-22
2022/05/30 04:13:08;;;;;;;0.75;0.68;;;;;;;16.68;43.95;95951.50;10470966;28;20303;-22
2022/05/30 04:18:27;;;;;;;1.00;0.70;;;;;;;16.70;43.93;95949.81;10486096;28;20048;-22
2022/05/30 04:23:28;;;;;;;1.95;0.88;;;;;;;16.68;43.70;95946.47;10465477;28;20479;-24
2022/05/30 04:28:32;;;;;;;2.70;0.68;;;;;;;16.73;43.74;95940.53;10447514;28;20056;-21
2022/05/30 04:33:55;;;;;;;0.98;0.60;;;;;;;16.79;43.80;95929.53;10448837;28;20041;-22
2022/05/30 04:38:56;;;;;;;2.95;1.10;;;;;;;16.74;44.50;95947.25;10448409;28;20515;-22
2022/05/30 04:44:16;;;;;;;0.90;0.70;;;;;;;16.68;44.17;95949.00;10447332;28;20547;-22
2022/05/30 04:49:50;;;;;;;1.38;0.70;;;;;;;16.71;44.21;95954.00;10448838;28;20120;-23
2022/05/30 04:54:51;;;;;;;2.22;0.80;;;;;;;16.70;44.12;95952.34;10464056;28;20064;-22
2022/05/30 05:00:25;;;;;;;2.08;0.70;;;;;;;16.68;44.11;95946.47;10455991;28;20033;-22
2022/05/30 05:05:26;;;;;;;1.27;0.70;;;;;;;16.66;44.23;95958.28;10464257;28;20057;-23
2022/05/30 05:11:10;;;;;;;3.17;0.98;;;;;;;16.55;43.80;95918.75;10451593;28;20112;-22
2022/05/30 05:16:30;;;;;;;2.17;0.68;;;;;;;16.76;43.54;95959.91;10455008;28;20044;-23
2022/05/30 05:21:42;;;;;;;2.13;0.68;;;;;;;16.78;43.77;95950.63;10464922;28;20025;-23
2022/05/30 05:26:45;;;;;;;2.88;0.95;;;;;;;16.98;42.66;95969.06;10455532;28;20053;-22
2022/05/30 05:31:53;;;;;;;2.38;1.17;;;;;;;16.93;42.36;95968.22;10454156;28;20075;-27
2022/05/30 05:36:54;;;;;;;1.95;0.85;;;;;;;17.02;42.52;95984.19;10452730;28;20090;-22
2022/05/30 05:41:55;;;;;;;3.03;0.90;;;;;;;17.13;43.25;95976.50;10454589;28;20446;-23
2022/05/30 05:46:57;;;;;;;1.55;0.50;;;;;;;17.10;43.79;95976.53;10453024;28;20039;-22
2022/05/30 05:51:59;;;;;;;2.97;0.82;;;;;;;17.16;43.42;95976.50;10452418;28;20033;-22
2022/05/30 05:57:00;;;;;;;0.88;0.70;;;;;;;17.12;43.69;95969.78;10453123;28;20523;-21
2022/05/30 06:02:12;;;;;;;1.88;0.88;;;;;;;17.13;43.85;95981.56;10484389;28;20098;-22
2022/05/30 06:07:13;;;;;;;1.10;0.80;;;;;;;17.12;43.49;95984.97;10467435;28;20556;-21
2022/05/30 06:12:36;;;;;;;1.63;0.80;;;;;;;17.07;43.68;95981.63;10453152;28;20369;-22
2022/05/30 06:17:41;;;;;;;1.50;0.75;;;;;;;17.05;43.71;95988.38;10454961;28;20037;-22
2022/05/30 06:22:42;;;;;;;1.98;0.60;;;;;;;17.09;43.92;95988.34;10462678;28;20403;-23
2022/05/30 06:28:01;;;;;;;3.13;0.70;;;;;;;17.10;43.42;95994.25;10451819;28;20033;-23
2022/05/30 06:33:10;;;;;;;2.17;1.05;;;;;;;17.09;43.45;95997.63;10451855;28;20087;-22
2022/05/30 06:38:21;;;;;;;1.75;0.70;;;;;;;17.06;43.10;96001.00;10451455;28;20318;-22
2022/05/30 06:43:27;;;;;;;1.50;0.60;;;;;;;17.13;43.13;96001.81;10450941;28;20033;-24
2022/05/30 06:48:56;;;;;;;1.07;0.73;;;;;;;17.11;43.15;96003.50;10450984;28;20033;-22
2022/05/30 06:54:23;;;;;;;1.63;0.77;;;;;;;17.07;43.21;96007.75;10450412;28;20495;-23
2022/05/30 06:59:23;;;;;;;3.47;0.60;;;;;;;17.09;42.76;96005.22;10492216;28;20060;-23
2022/05/30 07:04:24;;;;;;;1.45;0.80;;;;;;;17.07;42.88;96007.75;10475536;28;20507;-22
2022/05/30 07:09:43;;;;;;;0.80;0.57;;;;;;;17.03;43.07;96010.31;10453910;28;20111;-22
2022/05/30 07:15:04;;;;;;;2.13;0.80;;;;;;;17.07;42.92;96022.09;10491674;28;20487;-22
2022/05/30 07:20:06;;;;;;;0.95;0.65;;;;;;;17.02;43.04;96023.78;10490001;28;20028;-22
2022/05/30 07:25:37;;;;;;;1.70;0.73;;;;;;;16.93;43.61;96023.84;10481349;28;20485;-23
2022/05/30 07:31:10;;;;;;;4.88;0.90;;;;;;;17.04;43.47;96027.16;10429857;28;20071;-22
2022/05/30 07:36:31;;;;;;;1.05;0.52;;;;;;;16.98;44.00;96032.25;10482986;28;20044;-24
2022/05/30 07:41:54;;;;;;;2.80;0.98;;;;;;;17.03;43.88;96030.53;10469221;28;20491;-22
2022/05/30 07:47:16;;;;;;;1.50;0.70;;;;;;;17.01;43.52;96028.03;10450562;28;20045;-22
2022/05/30 07:52:33;;;;;;;2.65;1.10;;;;;;;17.06;43.60;96030.53;10489286;28;20043;-23
2022/05/30 07:57:51;;;;;;;1.05;0.68;;;;;;;17.03;43.03;96020.41;10461287;28;20572;-23
2022/05/30 08:02:53;;;;;;;1.80;0.95;;;;;;;17.01;43.07;96022.97;10485027;28;20055;-22
2022/05/30 08:07:57;;;;;;;1.10;0.57;;;;;;;17.08;43.12;96034.72;10455042;28;20507;-24
2022/05/30 08:13:18;;;;;;;1.63;1.10;;;;;;;16.99;43.44;96033.94;10448649;28;20041;-22
2022/05/30 08:18:32;;;;;;;2.28;0.75;;;;;;;17.04;43.62;96027.16;10454201;28;20044;-22
2022/05/30 08:23:35;;;;;;;1.58;0.80;;;;;;;17.01;43.13;96024.66;10448058;28;20477;-22
2022/05/30 08:28:37;;;;;;;2.25;0.82;;;;;;;16.98;43.90;96028.03;10448062;28;20083;-22
2022/05/30 08:33:38;;;;;;;3.10;0.90;;;;;;;17.08;43.13;96024.59;10447804;28;20040;-22
2022/05/30 08:44:21;;;;;;;2.33;0.88;;;;;;;16.98;43.22;96033.09;10491989;28;20055;-22
2022/05/30 08:49:49;;;;;;;2.15;0.80;;;;;;;17.09;42.87;96030.50;10454853;28;20071;-25
2022/05/30 08:54:58;;;;;;;2.35;0.88;;;;;;;17.15;42.51;96026.25;10455473;28;20529;-22
2022/05/30 09:00:12;;;;;;;1.58;0.70;;;;;;;17.04;42.90;96027.16;10469814;28;20090;-23
2022/05/30 09:05:48;;;;;;;1.58;0.88;;;;;;;17.12;42.38;96025.41;10454074;28;20036;-23
2022/05/30 09:10:57;;;;;;;1.65;0.70;;;;;;;17.11;42.58;96022.06;10456684;28;20036;-22
2022/05/30 09:16:18;;;;;;;1.10;0.68;;;;;;;17.03;43.10;96031.38;10454346;28;20419;-22
2022/05/30 09:21:20;;;;;;;4.47;1.00;;;;;;;17.09;42.21;96043.16;10466235;28;20091;-22
2022/05/30 09:26:31;;;;;;;1.23;0.70;;;;;;;17.10;42.98;96047.34;10469686;28;20127;-22
2022/05/30 09:32:04;;;;;;;3.83;0.90;;;;;;;17.02;42.78;96044.88;10496772;28;20111;-22
2022/05/30 09:37:30;;;;;;;2.13;0.80;;;;;;;17.09;42.18;96033.03;10455189;28;20040;-23
2022/05/30 09:42:55;;;;;;;1.65;0.88;;;;;;;17.12;42.16;96035.53;10443526;28;20108;-22
2022/05/30 09:48:14;;;;;;;1.25;0.80;;;;;;;17.09;41.99;96040.63;10453489;28;20048;-23
2022/05/30 09:53:49;;;;;;;1.23;0.63;;;;;;;17.08;41.86;96033.88;10446103;28;20125;-22
2022/05/30 09:59:05;;;;;;;3.10;0.80;;;;;;;17.25;41.62;96037.16;10489830;28;20028;-22
2022/05/30 10:04:23;;;;;;;0.93;0.63;;;;;;;17.33;41.55;96040.47;10478096;28;20044;-23
2022/05/30 10:09:34;;;;;;;2.47;0.85;;;;;;;17.29;41.94;96043.88;10453738;28;20033;-22
2022/05/30 10:14:42;;;;;;;2.17;1.20;;;;;;;17.34;41.66;96037.09;10493151;28;20063;-22
2022/05/30 10:19:51;;;;;;;2.35;1.20;;;;;;;17.40;41.59;96037.09;10487758;28;20043;-23
2022/05/30 10:31:21;;;;;;;2.40;2.03;;;;;;;17.45;41.64;96042.94;10451562;28;20920;-22
2022/05/30 10:37:10;;;;;;;2.17;1.73;;;;;;;17.41;41.95;96048.91;10480315;28;20052;-22
2022/05/30 10:42:18;;;;;;;10.13;1.80;;;;;;;17.42;42.33;96045.50;10461816;28;20234;-23
2022/05/30 10:47:35;;;;;;;1.73;0.98;;;;;;;17.45;41.89;96042.94;10450672;28;20098;-22
2022/05/30 10:52:39;;;;;;;;;;;;;;;17.44;41.77;96047.19;10450867;28;20123;-23
2022/05/30 10:57:55;;;;;;;5.32;2.70;;;;;;;17.46;41.80;96052.22;10462939;28;19924;-23
2022/05/30 11:03:10;;;;;;;15.45;7.88;;;;;;;17.53;42.04;96051.34;10487596;28;20078;-22
2022/05/30 11:08:20;;;;;;;5.55;2.20;;;;;;;17.51;42.44;96047.97;10480740;28;20403;-23
2022/05/30 11:13:27;;;;;;;5.40;2.45;;;;;;;17.43;42.02;96047.19;10450075;28;20033;-21
2022/05/30 11:19:08;;;;;;;2.30;1.30;;;;;;;17.37;41.68;96049.75;10464074;28;20040;-22
2022/05/30 11:24:37;;;;;;;3.50;1.10;;;;;;;17.42;41.95;96050.56;10452933;28;20052;-22
2022/05/30 11:29:49;;;;;;;2.45;1.35;;;;;;;17.46;41.82;96057.28;10492299;28;20116;-22
2022/05/30 11:35:14;;;;;;;2.97;1.30;;;;;;;17.49;42.31;96057.28;10475050;28;20044;-23
2022/05/30 11:40:43;;;;;;;4.22;1.48;;;;;;;17.50;42.85;96058.97;10450199;28;20400;-22
2022/05/30 11:45:51;;;;;;;2.75;1.48;;;;;;;17.51;42.79;96058.91;10450134;28;20131;-22
2022/05/30 11:51:19;;;;;;;4.55;1.73;;;;;;;17.49;42.97;96053.03;10481398;28;20456;-23
2022/05/30 11:56:58;;;;;;;3.55;1.40;;;;;;;17.43;43.08;96059.84;10473935;28;20112;-23
2022/05/30 12:02:02;;;;;;;4.65;1.77;;;;;;;17.50;42.69;96054.72;10491227;28;20082;-23
2022/05/30 12:07:33;;;;;;;2.22;1.20;;;;;;;17.50;42.72;96064.03;10489316;28;20036;-22
2022/05/30 12:13:03;;;;;;;1.17;0.93;;;;;;;17.42;42.44;96060.69;10463473;28;20120;-24
2022/05/30 12:24:21;;;;;;;2.33;1.10;;;;;;;17.47;42.68;96064.00;10461170;28;20380;-22
2022/05/30 12:29:37;;;;;;;4.10;1.77;;;;;;;17.58;43.49;96063.09;10504455;28;20098;-23
2022/05/30 12:40:26;;;;;;;2.45;1.10;;;;;;;17.59;43.57;96054.66;10463042;28;20037;-22
2022/05/30 12:45:35;;;;;;;3.25;1.40;;;;;;;17.58;43.60;96058.03;10462635;28;20036;-23
2022/05/30 12:50:39;;;;;;;2.83;1.50;;;;;;;17.63;43.83;96056.31;10462305;28;20040;-22
2022/05/30 12:55:48;;;;;;;3.88;1.40;;;;;;;17.60;44.03;96056.34;10462537;28;20111;-23
2022/05/30 13:01:06;;;;;;;2.35;1.40;;;;;;;17.59;43.88;96059.72;10482696;28;20037;-22
2022/05/30 13:06:13;;;;;;;3.33;1.67;;;;;;;17.65;44.09;96043.66;10468271;28;20048;-22
2022/05/30 13:11:23;;;;;;;5.82;3.25;;;;;;;17.70;43.54;96049.53;10462301;28;20330;-23
2022/05/30 13:16:33;;;;;;;3.60;1.67;;;;;;;17.70;43.83;96052.06;10462766;28;20028;-22
2022/05/30 13:21:34;;;;;;;2.80;1.42;;;;;;;17.64;44.00;96050.41;10498017;28;20104;-22
2022/05/30 13:26:34;;;;;;;2.22;1.38;;;;;;;17.61;43.88;96057.19;10492133;28;20033;-22
2022/05/30 13:31:35;;;;;;;2.95;1.30;;;;;;;17.60;44.00;96060.56;10457671;28;20686;-22
2022/05/30 13:36:35;;;;;;;3.33;1.00;;;;;;;17.59;43.73;96049.59;10471332;28;20438;-26
2022/05/30 13:41:38;;;;;;;2.43;1.40;;;;;;;17.64;44.23;96055.47;10477409;28;20567;-24
2022/05/30 13:46:43;;;;;;;3.67;1.95;;;;;;;17.67;44.31;96047.03;10454066;28;20310;-22
2022/05/30 13:51:45;;;;;;;3.42;2.05;;;;;;;17.75;44.44;96045.28;10455148;28;20076;-22
2022/05/30 13:56:46;;;;;;;11.13;3.53;;;;;;;17.84;44.29;96040.13;10471703;28;20037;-21
2022/05/30 14:01:55;;;;;;;2.55;1.45;;;;;;;17.65;44.33;96041.13;10482309;28;20032;-22
2022/05/30 14:06:56;;;;;;;2.15;1.30;;;;;;;17.63;44.51;96046.19;10474454;28;20134;-22
2022/05/30 14:12:01;;;;;;;11.27;3.97;;;;;;;17.72;44.65;96041.06;10452997;28;20044;-22
2022/05/30 14:17:03;;;;;;;3.13;1.98;;;;;;;17.73;44.60;96037.69;10453417;28;20037;-23
2022/05/30 14:22:11;;;;;;;6.68;2.63;;;;;;;17.80;44.38;96033.41;10453519;28;20088;-22
2022/05/30 14:27:18;;;;;;;2.80;1.27;;;;;;;17.63;43.57;96032.69;10453040;28;20037;-22
2022/05/30 14:32:18;;;;;;;6.72;2.00;;;;;;;17.71;44.61;96031.78;10451024;28;20479;-23
2022/05/30 14:37:30;;;;;;;2.78;1.75;;;;;;;17.70;44.15;96036.84;10453701;28;20029;-23
2022/05/30 14:42:36;;;;;;;7.85;2.35;;;;;;;17.75;44.98;96030.09;10466727;28;20036;-22
2022/05/30 14:47:44;;;;;;;2.03;1.10;;;;;;;17.70;44.40;96037.72;10452817;28;20479;-22
2022/05/30 14:52:49;;;;;;;3.63;2.10;;;;;;;17.74;44.41;96033.47;10452073;28;20041;-23
2022/05/30 14:57:52;;;;;;;5.10;2.42;;;;;;;17.79;45.05;96039.31;10481359;28;20066;-22
2022/05/30 15:08:11;;;;;;;3.17;1.75;;;;;;;17.67;44.31;96034.38;10451431;28;20108;-23
2022/05/30 15:13:11;;;;;;;2.38;1.48;;;;;;;17.67;44.40;96036.91;10451251;28;20049;-22
2022/05/30 15:18:14;;;;;;;3.53;2.00;;;;;;;17.71;45.06;96041.06;10452269;28;20031;-22
2022/05/30 15:23:14;;;;;;;3.85;1.60;;;;;;;17.76;44.48;96046.94;10451206;28;20061;-21
2022/05/30 15:28:14;;;;;;;2.00;1.47;;;;;;;17.82;44.55;96044.38;10454602;28;20043;-23
2022/05/30 15:33:15;;;;;;;2.23;1.40;;;;;;;17.73;44.57;96045.28;10466024;28;20437;-22
2022/05/30 15:38:15;;;;;;;2.17;0.67;;;;;;;17.69;44.12;96050.38;10492191;28;20499;-22
2022/05/30 15:43:17;;;;;;;3.00;1.20;;;;;;;17.64;43.83;96047.03;10459050;28;20307;-23
2022/05/30 15:48:18;;;;;;;2.15;0.90;;;;;;;17.53;42.79;96058.91;10453227;28;20032;-25
2022/05/30 15:58:46;;;;;;;;;;;;;;;17.77;45.27;96059.59;10486846;28;20357;-21
2022/05/30 16:03:46;;;;;;;2.20;1.00;;;;;;;17.58;43.30;96062.28;10482758;28;19916;-23
2022/05/30 16:08:49;;;;;;;1.37;0.80;;;;;;;17.60;43.57;96058.03;10449842;28;20116;-23
2022/05/30 16:13:49;;;;;;;2.90;1.10;;;;;;;17.63;44.05;96046.19;10449465;28;20773;-22
2022/05/30 16:18:50;;;;;;;3.42;1.77;;;;;;;17.72;45.22;96055.41;10457629;28;20025;-21
2022/05/30 16:23:55;;;;;;;3.08;1.13;;;;;;;17.77;44.62;96048.63;10449555;28;20121;-23
2022/05/30 16:28:57;;;;;;;7.00;3.45;;;;;;;17.92;45.26;96048.50;10486201;28;20041;-23
2022/05/30 16:33:58;;;;;;;4.15;1.17;;;;;;;17.75;44.51;96052.88;10490464;28;20036;-22
2022/05/30 16:38:58;;;;;;;9.38;2.10;;;;;;;17.86;45.29;96038.41;10451571;28;20033;-22
2022/05/30 16:43:59;;;;;;;3.03;1.30;;;;;;;17.79;44.53;96041.84;10448675;28;20048;-22
2022/05/30 16:48:59;;;;;;;10.85;2.22;;;;;;;17.84;44.79;96045.19;10455669;28;20043;-22
2022/05/30 16:54:00;;;;;;;2.75;1.30;;;;;;;17.77;44.59;96046.09;10451847;28;20066;-22
2022/05/30 16:59:01;;;;;;;1.53;0.83;;;;;;;17.68;44.23;96048.69;10460394;28;20040;-22
2022/05/30 17:04:02;;;;;;;1.02;0.90;;;;;;;17.65;44.36;96036.06;10448216;28;20041;-22
2022/05/30 17:09:04;;;;;;;2.58;1.20;;;;;;;17.69;44.46;96055.44;10456141;28;20029;-23
2022/05/30 17:14:05;;;;;;;2.33;1.05;;;;;;;17.57;43.70;96026.00;10456469;28;20041;-22
2022/05/30 17:19:06;;;;;;;2.25;1.25;;;;;;;17.68;44.10;96041.09;10471559;28;20584;-22
2022/05/30 17:24:08;;;;;;;1.95;0.90;;;;;;;17.66;44.33;96033.50;10497086;28;20040;-22
2022/05/30 17:29:20;;;;;;;1.90;1.10;;;;;;;17.68;44.44;96053.75;10457244;28;20060;-23
2022/05/30 17:34:23;;;;;;;5.65;1.90;;;;;;;17.81;46.15;96050.25;10455333;28;20087;-22
2022/05/30 17:39:24;;;;;;;1.67;1.02;;;;;;;17.80;44.25;96056.19;10455452;28;20128;-23
2022/05/30 17:44:25;;;;;;;2.42;0.90;;;;;;;17.67;43.39;96052.91;10455096;28;20047;-22
2022/05/30 17:49:54;;;;;;;2.13;0.90;;;;;;;17.75;44.13;96058.75;10456120;28;20539;-22
2022/05/30 17:54:56;;;;;;;1.20;0.65;;;;;;;17.68;43.92;96058.81;10490957;28;20032;-22
2022/05/30 17:59:56;;;;;;;1.63;0.75;;;;;;;17.63;43.26;96056.31;10467159;28;20036;-22
2022/05/30 18:04:57;;;;;;;1.02;0.60;;;;;;;17.61;43.22;96064.78;10454531;28;20032;-21
2022/05/30 18:10:16;;;;;;;0.85;0.73;;;;;;;17.61;43.60;96057.19;10453421;28;20044;-21
2022/05/30 18:15:57;;;;;;;1.50;0.80;;;;;;;17.57;43.50;96055.53;10452778;28;20045;-22
2022/05/30 18:21:12;;;;;;;1.00;0.73;;;;;;;17.58;43.19;96054.69;10460454;28;20049;-22
2022/05/30 18:26:13;;;;;;;0.85;0.68;;;;;;;17.55;43.02;96058.06;10452215;28;20559;-22
2022/05/30 18:31:56;;;;;;;2.60;1.30;;;;;;;17.60;43.43;96060.56;10452073;28;20068;-23
2022/05/30 18:37:10;;;;;;;1.33;0.68;;;;;;;17.60;43.83;96068.16;10452700;28;20459;-23
2022/05/30 18:42:37;;;;;;;56.88;4.70;;;;;;;17.65;44.32;96064.75;10452472;28;20290;-22
2022/05/30 18:47:42;;;;;;;13.20;1.65;;;;;;;17.55;43.83;96057.22;10452145;28;20411;-22
2022/05/30 18:52:43;;;;;;;5.97;1.67;;;;;;;17.57;44.00;96066.47;10459302;28;20510;-22
2022/05/30 18:58:05;;;;;;;9.10;1.15;;;;;;;17.56;43.82;96066.50;10491834;28;20036;-22
2022/05/30 19:03:11;;;;;;;1.40;0.60;;;;;;;17.56;43.92;96072.41;10492039;28;20036;-22
2022/05/30 19:08:12;;;;;;;1.33;0.70;;;;;;;17.58;43.88;96077.47;10493257;28;20569;-22
2022/05/30 19:13:16;;;;;;;1.02;0.70;;;;;;;17.56;44.01;96074.09;10461020;28;20032;-23
2022/05/30 19:18:35;;;;;;;1.67;0.90;;;;;;;17.53;43.96;96074.97;10460253;28;20529;-23
2022/05/30 19:23:36;;;;;;;1.48;0.98;;;;;;;17.51;44.33;96091.00;10455635;28;20036;-22
2022/05/30 19:28:36;;;;;;;2.17;1.05;;;;;;;17.40;44.27;96088.53;10451147;28;20523;-22
2022/05/30 19:33:36;;;;;;;2.42;0.80;;;;;;;17.39;44.77;96096.97;10451039;28;20039;-21
2022/05/30 19:38:37;;;;;;;4.00;1.30;;;;;;;17.49;44.04;96105.38;10450705;28;20128;-23
2022/05/30 19:43:39;;;;;;;1.10;0.60;;;;;;;17.51;44.40;96111.25;10449719;28;20033;-23
2022/05/30 19:48:40;;;;;;;3.03;0.80;;;;;;;17.48;44.48;96113.81;10449942;28;20490;-22
2022/05/30 19:53:40;;;;;;;2.70;0.90;;;;;;;17.45;44.42;96124.78;10450011;28;20037;-23
2022/05/30 19:58:41;;;;;;;2.55;0.80;;;;;;;17.37;44.43;96131.56;10452493;28;20036;-23
2022/05/30 20:03:41;;;;;;;3.53;0.93;;;;;;;17.36;44.28;96140.00;10458977;28;20033;-23
2022/05/30 20:08:42;;;;;;;1.90;0.73;;;;;;;17.38;44.34;96147.56;10447384;28;20043;-23
2022/05/30 20:13:42;;;;;;;1.80;0.90;;;;;;;17.37;44.30;96153.47;10481290;28;20082;-22
2022/05/30 20:18:43;;;;;;;2.40;0.98;;;;;;;17.39;43.75;96156.84;10480414;28;20048;-24
2022/05/30 20:23:46;;;;;;;2.33;0.87;;;;;;;17.42;43.99;96169.50;10445448;28;20037;-23
2022/05/30 20:28:47;;;;;;;3.40;0.98;;;;;;;17.39;43.86;96177.09;10481239;28;20418;-23
2022/05/30 20:33:47;;;;;;;1.80;1.10;;;;;;;17.43;43.55;96169.50;10474868;28;20091;-23
2022/05/30 20:38:48;;;;;;;1.17;0.77;;;;;;;17.44;43.63;96175.38;10446523;28;20135;-23
2022/05/30 20:43:50;;;;;;;1.53;0.77;;;;;;;17.49;43.04;96183.81;10451505;28;20032;-24
2022/05/30 20:48:50;;;;;;;2.20;0.70;;;;;;;17.53;43.08;96180.41;10452890;28;20195;-23
2022/05/30 20:53:51;;;;;;;1.23;0.80;;;;;;;17.45;43.52;96174.53;10452307;28;20048;-23
2022/05/30 20:58:51;;;;;;;1.23;0.90;;;;;;;17.45;43.50;96172.00;10490055;28;20496;-23
2022/05/30 21:03:51;;;;;;;1.10;0.77;;;;;;;17.37;43.48;96178.78;10488454;28;20037;-22
2022/05/30 21:08:52;;;;;;;0.70;0.70;;;;;;;17.41;43.45;96170.34;10452373;28;20040;-22
2022/05/30 21:13:53;;;;;;;2.83;1.00;;;;;;;17.36;43.40;96174.56;10448722;28;20479;-22
2022/05/30 21:19:02;;;;;;;1.23;0.90;;;;;;;17.40;43.24;96166.16;10460896;28;20047;-24
2022/05/30 21:24:03;;;;;;;2.72;1.23;;;;;;;17.32;43.36;96170.34;10490047;28;20388;-23
2022/05/30 21:29:04;;;;;;;1.23;0.63;;;;;;;17.35;43.30;96157.69;10453351;28;20037;-23
2022/05/30 21:34:14;;;;;;;2.25;1.00;;;;;;;17.36;42.86;96161.94;10450504;28;20025;-23
2022/05/30 21:39:15;;;;;;;1.25;0.73;;;;;;;17.30;43.21;96161.91;10449968;28;20103;-24
2022/05/30 21:44:16;;;;;;;2.33;0.90;;;;;;;17.35;42.93;96160.22;10455543;28;20039;-23
2022/05/30 21:49:16;;;;;;;3.10;0.80;;;;;;;17.37;42.43;96154.34;10464601;28;20049;-23
2022/05/30 21:54:17;;;;;;;2.40;1.10;;;;;;;17.42;42.36;96151.78;10459363;28;20458;-23
2022/05/30 21:59:17;;;;;;;1.93;0.90;;;;;;;17.38;42.32;96152.63;10450875;28;20048;-23
2022/05/30 22:04:17;;;;;;;1.23;0.80;;;;;;;17.34;42.54;96156.00;10448055;28;20040;-22
2022/05/30 22:09:18;;;;;;;2.67;1.37;;;;;;;17.31;42.82;96151.78;10481716;28;20379;-26
2022/05/30 22:14:18;;;;;;;1.83;0.70;;;;;;;17.24;42.76;96149.31;10490150;28;20488;-23
2022/05/30 22:19:19;;;;;;;2.33;1.13;;;;;;;17.20;42.88;96150.16;10485142;28;20412;-23
2022/05/30 22:24:37;;;;;;;1.60;0.90;;;;;;;17.25;42.71;96143.41;10449063;28;20418;-24
2022/05/30 22:29:38;;;;;;;2.72;1.00;;;;;;;17.15;43.01;96149.34;10449347;28;20530;-22
2022/05/30 22:34:39;;;;;;;1.83;0.77;;;;;;;17.12;43.09;96144.28;10448556;28;20045;-23
2022/05/30 22:39:39;;;;;;;1.17;0.90;;;;;;;17.27;42.82;96142.56;10449883;28;20055;-23
2022/05/30 22:44:40;;;;;;;1.63;0.80;;;;;;;17.22;42.98;96140.88;10449052;28;20268;-23
2022/05/30 22:49:40;;;;;;;1.33;0.90;;;;;;;17.16;42.93;96135.84;10470764;28;20044;-23
2022/05/30 22:54:41;;;;;;;2.23;1.03;;;;;;;17.33;43.10;96142.50;10487333;28;20036;-24
2022/05/30 22:59:41;;;;;;;2.13;1.38;;;;;;;17.36;42.79;96139.16;10448828;28;20033;-23
2022/05/30 23:04:41;;;;;;;1.67;1.07;;;;;;;17.22;42.72;96134.13;10451107;28;20037;-23
2022/05/30 23:09:42;;;;;;;1.17;0.90;;;;;;;17.13;42.96;96133.31;10450428;28;20306;-23
2022/05/30 23:14:42;;;;;;;1.60;0.90;;;;;;;17.17;43.21;96140.06;10451503;28;20037;-23
2022/05/30 23:19:48;;;;;;;1.30;1.00;;;;;;;17.30;43.37;96136.63;10452102;28;20120;-24
2022/05/30 23:24:48;;;;;;;1.40;1.00;;;;;;;17.23;42.75;96122.34;10451460;28;20047;-23
2022/05/30 23:29:50;;;;;;;1.73;1.40;;;;;;;17.32;42.96;96109.66;10451328;28;20043;-23
2022/05/30 23:34:50;;;;;;;1.67;1.10;;;;;;;17.32;42.82;96114.69;10450869;28;20403;-24
2022/05/30 23:39:50;;;;;;;1.53;1.10;;;;;;;17.34;42.95;96102.88;10453980;28;20039;-23
2022/05/30 23:44:51;;;;;;;3.90;1.38;;;;;;;17.34;42.73;96107.94;10492265;28;20092;-23
2022/05/30 23:49:55;;;;;;;1.98;1.10;;;;;;;17.33;43.15;96102.03;10473460;28;20045;-22
2022/05/30 23:54:56;;;;;;;2.05;1.02;;;;;;;17.37;42.89;96095.28;10450884;28;20032;-24
2022/05/30 23:59:57;;;;;;;3.58;1.23;;;;;;;17.46;42.61;96088.50;10450775;28;20056;-23
